createdAt,value
2019-01-20T00:02:24.631Z,20.00
2019-01-20T00:04:58.211Z,20.20
2019-01-20T00:07:31.962Z,20.53
2019-01-20T00:10:08.524Z,21.53
2019-01-20T00:12:42.058Z,18.63
2019-01-20T00:15:20.183Z,22.37
2019-01-20T00:17:54.110Z,21.63
2019-01-20T00:20:27.679Z,22.47
2019-01-20T00:23:01.277Z,22.13
2019-01-20T00:25:34.626Z,22.63
2019-01-20T00:28:08.078Z,26.23
2019-01-20T00:30:41.502Z,21.73
2019-01-20T00:33:14.980Z,24.87
2019-01-20T00:35:48.462Z,21.57
2019-01-20T00:38:21.841Z,21.40
2019-01-20T00:40:55.243Z,22.57
2019-01-20T00:43:28.761Z,20.43
2019-01-20T00:46:02.099Z,20.77
2019-01-20T00:48:35.556Z,19.93
2019-01-20T00:51:09.025Z,21.20
2019-01-20T00:53:42.582Z,22.80
2019-01-20T00:56:15.913Z,20.00
2019-01-20T00:58:49.350Z,19.13
2019-01-20T01:01:22.750Z,19.20
2019-01-20T01:03:56.331Z,20.40
2019-01-20T01:06:29.741Z,20.43
2019-01-20T01:09:03.687Z,22.00
2019-01-20T01:11:37.087Z,20.67
2019-01-20T01:14:10.591Z,20.40
2019-01-20T01:16:43.996Z,21.40
2019-01-20T01:19:17.372Z,21.73
2019-01-20T01:21:50.706Z,23.03
2019-01-20T01:24:24.072Z,22.93
2019-01-20T01:26:57.497Z,21.00
2019-01-20T01:29:30.853Z,24.47
2019-01-20T01:32:04.327Z,22.80
2019-01-20T01:34:37.687Z,22.03
2019-01-20T01:37:11.135Z,23.00
2019-01-20T01:39:44.583Z,22.93
2019-01-20T01:42:17.981Z,21.97
2019-01-20T01:44:51.360Z,22.63
2019-01-20T01:47:24.704Z,22.20
2019-01-20T01:49:58.139Z,21.30
2019-01-20T01:52:31.471Z,22.33
2019-01-20T01:55:06.782Z,20.90
2019-01-20T01:57:40.186Z,22.80
2019-01-20T02:00:16.377Z,22.37
2019-01-20T02:02:49.814Z,21.03
2019-01-20T02:05:23.325Z,22.83
2019-01-20T02:07:56.669Z,21.77
2019-01-20T02:10:30.173Z,21.47
2019-01-20T02:13:03.499Z,20.73
2019-01-20T02:15:36.934Z,21.23
2019-01-20T02:18:10.411Z,20.03
2019-01-20T02:20:44.126Z,19.90
2019-01-20T02:23:17.597Z,18.90
2019-01-20T02:25:51.039Z,18.57
2019-01-20T02:28:24.585Z,21.67
2019-01-20T02:30:58.540Z,21.30
2019-01-20T02:33:31.882Z,20.00
2019-01-20T02:36:05.660Z,21.57
2019-01-20T02:38:39.062Z,20.13
2019-01-20T02:41:12.428Z,23.60
2019-01-20T02:43:45.766Z,23.43
2019-01-20T02:46:19.206Z,22.73
2019-01-20T02:48:52.537Z,22.93
2019-01-20T02:51:25.910Z,21.77
2019-01-20T02:53:59.251Z,21.80
2019-01-20T02:56:32.618Z,21.37
2019-01-20T02:59:06.023Z,21.90
2019-01-20T03:01:39.946Z,21.47
2019-01-20T03:04:15.297Z,22.73
2019-01-20T03:06:48.754Z,21.73
2019-01-20T03:09:22.167Z,21.80
2019-01-20T03:12:03.291Z,23.77
2019-01-20T03:14:30.590Z,20.23
2019-01-20T03:17:04.034Z,20.90
2019-01-20T03:19:37.392Z,21.37
2019-01-20T03:22:11.170Z,20.80
2019-01-20T03:24:44.566Z,23.30
2019-01-20T03:27:17.931Z,20.77
2019-01-20T03:29:51.264Z,21.40
2019-01-20T03:32:24.707Z,23.30
2019-01-20T03:34:58.074Z,22.23
2019-01-20T03:37:31.595Z,22.70
2019-01-20T03:40:11.267Z,22.97
2019-01-20T03:42:44.777Z,23.13
2019-01-20T03:45:19.453Z,23.63
2019-01-20T03:47:52.898Z,22.67
2019-01-20T03:50:26.233Z,22.90
2019-01-20T03:52:59.671Z,24.17
2019-01-20T03:55:33.074Z,22.50
2019-01-20T03:58:06.579Z,21.40
2019-01-20T04:00:39.993Z,22.07
2019-01-20T04:03:13.838Z,22.67
2019-01-20T04:05:47.242Z,22.83
2019-01-20T04:08:20.685Z,22.73
2019-01-20T04:10:54.014Z,22.97
2019-01-20T04:13:27.452Z,21.57
2019-01-20T04:16:00.853Z,22.20
2019-01-20T04:18:34.294Z,20.07
2019-01-20T04:21:07.636Z,22.63
2019-01-20T04:23:41.182Z,22.73
2019-01-20T04:26:14.540Z,23.70
2019-01-20T04:28:47.915Z,23.33
2019-01-20T04:31:21.245Z,23.77
2019-01-20T04:33:54.611Z,26.27
2019-01-20T04:36:28.018Z,27.43
2019-01-20T04:39:01.453Z,29.13
2019-01-20T04:41:34.794Z,28.23
2019-01-20T04:44:08.157Z,27.57
2019-01-20T04:46:41.496Z,26.30
2019-01-20T04:49:15.258Z,25.67
2019-01-20T04:51:48.719Z,25.70
2019-01-20T04:54:22.150Z,25.43
2019-01-20T04:56:55.482Z,24.43
2019-01-20T04:59:28.920Z,25.10
2019-01-20T05:02:02.245Z,27.30
2019-01-20T05:04:36.029Z,25.50
2019-01-20T05:07:09.361Z,25.10
2019-01-20T05:09:42.890Z,27.57
2019-01-20T05:12:16.223Z,26.33
2019-01-20T05:14:49.991Z,25.93
2019-01-20T05:17:23.327Z,23.03
2019-01-20T05:19:56.840Z,22.10
2019-01-20T05:22:30.174Z,22.43
2019-01-20T05:25:04.320Z,23.10
2019-01-20T05:27:37.721Z,22.20
2019-01-20T05:30:16.124Z,23.23
2019-01-20T05:32:49.514Z,21.90
2019-01-20T05:35:22.865Z,22.53
2019-01-20T05:37:56.198Z,23.13
2019-01-20T05:40:29.574Z,21.37
2019-01-20T05:43:02.976Z,23.37
2019-01-20T05:45:36.491Z,21.77
2019-01-20T05:48:09.830Z,21.13
2019-01-20T05:50:43.207Z,22.10
2019-01-20T05:53:16.536Z,21.83
2019-01-20T05:55:49.967Z,22.37
2019-01-20T05:58:23.311Z,22.53
2019-01-20T06:00:56.667Z,22.50
2019-01-20T06:03:29.998Z,24.43
2019-01-20T06:06:03.434Z,25.33
2019-01-20T06:08:36.840Z,29.30
2019-01-20T06:11:10.209Z,31.97
2019-01-20T06:13:43.554Z,39.13
2019-01-20T06:16:17.026Z,31.57
2019-01-20T06:18:50.331Z,31.50
2019-01-20T06:21:24.050Z,42.00
2019-01-20T06:23:57.382Z,42.53
2019-01-20T06:26:30.745Z,35.23
2019-01-20T06:29:04.145Z,38.90
2019-01-20T06:31:37.582Z,40.30
2019-01-20T06:34:10.922Z,33.57
2019-01-20T06:36:44.293Z,52.30
2019-01-20T06:39:17.625Z,36.50
2019-01-20T06:41:50.985Z,42.33
2019-01-20T06:44:24.334Z,62.63
2019-01-20T06:46:57.703Z,38.00
2019-01-20T06:49:31.057Z,42.90
2019-01-20T06:52:04.564Z,37.20
2019-01-20T06:54:37.898Z,47.20
2019-01-20T06:57:11.281Z,49.80
2019-01-20T06:59:44.611Z,40.70
2019-01-20T07:02:17.987Z,37.13
2019-01-20T07:04:51.495Z,43.47
2019-01-20T07:07:24.923Z,39.70
2019-01-20T07:09:58.257Z,45.13
2019-01-20T07:12:31.695Z,50.20
2019-01-20T07:15:13.510Z,39.80
2019-01-20T07:17:46.957Z,46.53
2019-01-20T07:20:20.455Z,44.17
2019-01-20T07:22:54.319Z,38.33
2019-01-20T07:25:27.654Z,36.13
2019-01-20T07:28:01.101Z,44.33
2019-01-20T07:30:34.508Z,45.90
2019-01-20T07:33:08.334Z,35.37
2019-01-20T07:35:41.664Z,43.33
2019-01-20T07:38:15.031Z,39.27
2019-01-20T07:40:48.433Z,44.83
2019-01-20T07:43:22.184Z,36.43
2019-01-20T07:45:55.528Z,45.30
2019-01-20T07:48:29.292Z,37.40
2019-01-20T07:51:02.702Z,42.03
2019-01-20T07:53:36.142Z,41.73
2019-01-20T07:56:09.474Z,46.37
2019-01-20T07:58:42.918Z,35.40
2019-01-20T08:01:16.317Z,37.30
2019-01-20T08:03:49.774Z,39.03
2019-01-20T08:06:23.110Z,48.57
2019-01-20T08:08:56.550Z,37.73
2019-01-20T08:11:29.955Z,41.97
2019-01-20T08:14:03.456Z,37.20
2019-01-20T08:16:36.859Z,37.30
2019-01-20T08:19:10.472Z,37.90
2019-01-20T08:21:43.949Z,45.30
2019-01-20T08:24:17.328Z,37.30
2019-01-20T08:26:50.735Z,37.13
2019-01-20T08:29:24.401Z,37.63
2019-01-20T08:31:57.742Z,37.23
2019-01-20T08:34:31.192Z,36.27
2019-01-20T08:37:04.601Z,36.13
2019-01-20T08:39:37.975Z,37.87
2019-01-20T08:42:11.317Z,44.57
2019-01-20T08:44:45.148Z,43.83
2019-01-20T08:47:19.280Z,44.13
2019-01-20T08:49:52.658Z,42.87
2019-01-20T08:52:26.065Z,37.13
2019-01-20T08:54:59.531Z,40.73
2019-01-20T08:57:32.910Z,35.50
2019-01-20T09:00:12.602Z,36.77
2019-01-20T09:02:46.002Z,37.20
2019-01-20T09:05:22.567Z,42.93
2019-01-20T09:07:56.050Z,39.27
2019-01-20T09:10:29.489Z,40.40
2019-01-20T09:13:04.481Z,35.53
2019-01-20T09:15:37.873Z,35.43
2019-01-20T09:18:11.272Z,37.70
2019-01-20T09:20:44.863Z,38.80
2019-01-20T09:23:18.198Z,36.50
2019-01-20T09:25:52.005Z,33.70
2019-01-20T09:28:25.340Z,36.47
2019-01-20T09:30:59.260Z,36.90
2019-01-20T09:33:32.753Z,39.40
2019-01-20T09:36:07.035Z,36.00
2019-01-20T09:38:40.539Z,35.93
2019-01-20T09:41:14.337Z,38.07
2019-01-20T09:43:47.670Z,40.43
2019-01-20T09:46:21.018Z,39.53
2019-01-20T09:48:54.347Z,41.40
2019-01-20T09:51:28.076Z,32.63
2019-01-20T09:54:01.557Z,34.53
2019-01-20T09:56:34.985Z,33.13
2019-01-20T09:59:08.319Z,34.50
2019-01-20T10:01:42.298Z,35.80
2019-01-20T10:04:15.698Z,39.40
2019-01-20T10:06:49.196Z,36.73
2019-01-20T10:09:22.590Z,38.97
2019-01-20T10:11:55.970Z,35.10
2019-01-20T10:14:29.328Z,36.70
2019-01-20T10:17:03.088Z,55.03
2019-01-20T10:19:36.428Z,32.87
2019-01-20T10:22:09.948Z,34.27
2019-01-20T10:24:43.447Z,31.23
2019-01-20T10:27:16.999Z,29.73
2019-01-20T10:29:50.328Z,31.43
2019-01-20T10:32:23.771Z,28.90
2019-01-20T10:34:57.452Z,27.60
2019-01-20T10:37:31.936Z,31.90
2019-01-20T10:40:07.399Z,31.70
2019-01-20T10:42:40.761Z,32.53
2019-01-20T10:45:14.301Z,30.87
2019-01-20T10:47:47.965Z,32.90
2019-01-20T10:50:21.544Z,29.87
2019-01-20T10:52:55.356Z,33.90
2019-01-20T10:55:28.842Z,31.90
2019-01-20T10:58:02.774Z,34.00
2019-01-20T11:00:40.902Z,30.73
2019-01-20T11:03:14.268Z,32.33
2019-01-20T11:05:47.602Z,31.87
2019-01-20T11:08:21.104Z,31.67
2019-01-20T11:10:54.681Z,29.67
2019-01-20T11:13:28.231Z,32.97
2019-01-20T11:16:01.557Z,30.43
2019-01-20T11:18:34.928Z,33.17
2019-01-20T11:21:08.340Z,31.23
2019-01-20T11:23:42.120Z,30.50
2019-01-20T11:26:15.445Z,30.27
2019-01-20T11:28:49.308Z,31.93
2019-01-20T11:31:22.644Z,33.13
2019-01-20T11:33:56.514Z,32.53
2019-01-20T11:36:29.988Z,32.67
2019-01-20T11:39:04.303Z,31.47
2019-01-20T11:41:37.685Z,33.77
2019-01-20T11:44:16.870Z,33.47
2019-01-20T11:46:46.539Z,36.60
2019-01-20T11:49:19.863Z,33.53
2019-01-20T11:51:53.461Z,33.10
2019-01-20T11:54:26.874Z,33.27
2019-01-20T11:57:00.398Z,34.70
2019-01-20T11:59:33.722Z,33.93
2019-01-20T12:02:07.426Z,35.07
2019-01-20T12:04:40.951Z,35.73
2019-01-20T12:07:14.316Z,36.00
2019-01-20T12:09:47.647Z,32.03
2019-01-20T12:12:21.168Z,34.87
2019-01-20T12:14:54.552Z,33.63
2019-01-20T12:17:27.991Z,31.60
2019-01-20T12:20:01.322Z,33.73
2019-01-20T12:22:34.688Z,36.77
2019-01-20T12:25:16.632Z,31.67
2019-01-20T12:27:50.038Z,33.80
2019-01-20T12:30:29.210Z,35.40
2019-01-20T12:33:03.137Z,32.90
2019-01-20T12:35:36.542Z,33.70
2019-01-20T12:38:10.045Z,35.53
2019-01-20T12:40:45.395Z,34.00
2019-01-20T12:43:18.833Z,77.70
2019-01-20T12:45:52.236Z,35.13
2019-01-20T12:48:25.670Z,31.23
2019-01-20T12:50:59.080Z,32.43
2019-01-20T12:53:32.522Z,36.10
2019-01-20T12:56:05.930Z,34.17
2019-01-20T12:58:39.301Z,33.07
2019-01-20T13:01:12.727Z,31.90
2019-01-20T13:03:46.168Z,35.93
2019-01-20T13:06:19.584Z,32.27
2019-01-20T13:08:52.941Z,34.73
2019-01-20T13:11:26.340Z,33.53
2019-01-20T13:13:59.709Z,34.07
2019-01-20T13:16:33.105Z,33.50
2019-01-20T13:19:06.885Z,34.00
2019-01-20T13:21:40.231Z,34.97
2019-01-20T13:24:13.659Z,33.23
2019-01-20T13:26:47.062Z,35.57
2019-01-20T13:29:20.562Z,32.53
2019-01-20T13:31:53.958Z,31.33
2019-01-20T13:34:27.351Z,33.53
2019-01-20T13:37:00.749Z,28.70
2019-01-20T13:39:34.106Z,27.47
2019-01-20T13:42:07.509Z,28.10
2019-01-20T13:44:46.164Z,28.37
2019-01-20T13:47:16.323Z,28.27
2019-01-20T13:49:50.113Z,27.93
2019-01-20T13:52:23.591Z,30.53
2019-01-20T13:54:56.950Z,30.90
2019-01-20T13:57:30.280Z,30.10
2019-01-20T14:00:04.983Z,31.67
2019-01-20T14:02:38.393Z,32.20
2019-01-20T14:05:11.959Z,34.07
2019-01-20T14:07:45.360Z,34.70
2019-01-20T14:10:24.237Z,35.37
2019-01-20T14:12:57.632Z,32.47
2019-01-20T14:15:30.997Z,32.47
2019-01-20T14:18:04.464Z,31.47
2019-01-20T14:20:38.048Z,30.17
2019-01-20T14:23:11.399Z,29.80
2019-01-20T14:25:44.786Z,29.93
2019-01-20T14:28:18.229Z,30.40
2019-01-20T14:30:51.670Z,32.13
2019-01-20T14:33:25.003Z,33.93
2019-01-20T14:35:58.852Z,34.50
2019-01-20T14:38:32.178Z,31.17
2019-01-20T14:41:05.605Z,30.57
2019-01-20T14:43:39.003Z,33.67
2019-01-20T14:46:12.447Z,33.10
2019-01-20T14:48:45.845Z,34.43
2019-01-20T14:51:19.357Z,33.37
2019-01-20T14:53:52.758Z,32.00
2019-01-20T14:56:26.198Z,31.30
2019-01-20T14:58:59.536Z,31.67
2019-01-20T15:01:32.985Z,31.43
2019-01-20T15:04:06.383Z,31.87
2019-01-20T15:06:39.945Z,32.07
2019-01-20T15:09:13.354Z,31.43
2019-01-20T15:11:46.771Z,30.43
2019-01-20T15:14:20.094Z,33.70
2019-01-20T15:16:53.547Z,30.13
2019-01-20T15:19:26.878Z,30.40
2019-01-20T15:22:00.413Z,34.20
2019-01-20T15:24:33.731Z,29.77
2019-01-20T15:27:07.186Z,30.80
2019-01-20T15:29:40.586Z,32.30
2019-01-20T15:32:14.198Z,35.23
2019-01-20T15:34:47.597Z,36.83
2019-01-20T15:37:20.977Z,33.53
2019-01-20T15:39:54.381Z,33.13
2019-01-20T15:42:27.988Z,37.30
2019-01-20T15:45:02.311Z,33.27
2019-01-20T15:47:35.680Z,33.97
2019-01-20T15:50:14.899Z,31.57
2019-01-20T15:52:48.343Z,32.33
2019-01-20T15:55:21.742Z,34.70
2019-01-20T15:57:55.142Z,33.97
2019-01-20T16:00:30.416Z,34.07
2019-01-20T16:03:03.850Z,33.20
2019-01-20T16:05:37.182Z,33.17
2019-01-20T16:08:11.947Z,31.57
2019-01-20T16:10:45.391Z,32.13
2019-01-20T16:13:18.908Z,35.13
2019-01-20T16:15:52.310Z,31.70
2019-01-20T16:18:25.759Z,31.90
2019-01-20T16:20:59.156Z,30.70
2019-01-20T16:23:32.519Z,32.90
2019-01-20T16:26:05.986Z,30.80
2019-01-20T16:28:39.433Z,32.77
2019-01-20T16:31:12.769Z,32.87
2019-01-20T16:33:46.207Z,31.97
2019-01-20T16:36:19.550Z,35.27
2019-01-20T16:38:52.920Z,33.00
2019-01-20T16:41:26.316Z,33.07
2019-01-20T16:43:59.872Z,33.13
2019-01-20T16:46:33.271Z,34.63
2019-01-20T16:49:06.733Z,39.77
2019-01-20T16:51:40.135Z,35.17
2019-01-20T16:54:13.768Z,32.60
2019-01-20T16:56:47.182Z,32.90
2019-01-20T16:59:20.626Z,33.40
2019-01-20T17:01:53.950Z,32.77
2019-01-20T17:04:27.308Z,31.27
2019-01-20T17:07:00.659Z,30.60
2019-01-20T17:09:34.191Z,31.43
2019-01-20T17:12:07.506Z,30.93
2019-01-20T17:14:40.874Z,32.03
2019-01-20T17:17:14.199Z,31.80
2019-01-20T17:19:47.719Z,33.37
2019-01-20T17:22:21.118Z,32.60
2019-01-20T17:24:54.575Z,34.43
2019-01-20T17:27:27.911Z,32.83
2019-01-20T17:30:01.281Z,35.27
2019-01-20T17:32:34.690Z,43.80
2019-01-20T17:35:10.665Z,41.90
2019-01-20T17:37:44.087Z,40.80
2019-01-20T17:40:20.255Z,35.50
2019-01-20T17:42:53.921Z,34.33
2019-01-20T17:45:33.038Z,36.97
2019-01-20T17:48:06.433Z,33.43
2019-01-20T17:50:41.457Z,33.93
2019-01-20T17:53:14.936Z,33.73
2019-01-20T17:55:48.382Z,33.03
2019-01-20T17:58:21.785Z,37.17
2019-01-20T18:00:56.689Z,34.63
2019-01-20T18:03:30.093Z,41.77
2019-01-20T18:06:03.803Z,42.73
2019-01-20T18:08:37.207Z,48.80
2019-01-20T18:11:11.050Z,52.37
2019-01-20T18:13:44.468Z,41.13
2019-01-20T18:16:17.892Z,40.67
2019-01-20T18:18:51.347Z,42.77
2019-01-20T18:21:24.825Z,42.17
2019-01-20T18:23:58.153Z,40.47
2019-01-20T18:26:31.613Z,51.13
2019-01-20T18:29:05.174Z,40.43
2019-01-20T18:31:38.635Z,43.80
2019-01-20T18:34:11.965Z,40.63
2019-01-20T18:36:45.429Z,40.13
2019-01-20T18:39:18.751Z,42.63
2019-01-20T18:41:52.188Z,90.67
2019-01-20T18:44:25.678Z,60.47
2019-01-20T18:46:59.124Z,102.20
2019-01-20T18:49:32.463Z,57.57
2019-01-20T18:52:06.045Z,42.87
2019-01-20T18:54:39.454Z,93.47
2019-01-20T18:57:12.906Z,91.67
2019-01-20T18:59:46.307Z,54.30
2019-01-20T19:02:20.051Z,84.80
2019-01-20T19:04:53.464Z,79.27
2019-01-20T19:07:26.827Z,65.93
2019-01-20T19:10:00.173Z,80.50
2019-01-20T19:12:33.679Z,54.80
2019-01-20T19:15:12.983Z,54.13
2019-01-20T19:17:47.126Z,60.07
2019-01-20T19:20:25.058Z,49.20
2019-01-20T19:22:59.363Z,44.23
2019-01-20T19:25:32.840Z,48.90
2019-01-20T19:28:06.429Z,45.93
2019-01-20T19:30:39.835Z,47.17
2019-01-20T19:33:13.267Z,62.53
2019-01-20T19:35:46.673Z,55.80
2019-01-20T19:38:20.194Z,49.13
2019-01-20T19:40:53.596Z,54.97
2019-01-20T19:43:27.120Z,49.47
2019-01-20T19:46:00.528Z,46.13
2019-01-20T19:48:33.913Z,42.33
2019-01-20T19:51:07.323Z,43.13
2019-01-20T19:53:40.746Z,42.43
2019-01-20T19:56:14.089Z,49.97
2019-01-20T19:58:47.466Z,62.57
2019-01-20T20:01:20.863Z,47.53
2019-01-20T20:03:54.388Z,54.07
2019-01-20T20:06:27.799Z,48.73
2019-01-20T20:09:01.158Z,45.23
2019-01-20T20:11:34.573Z,56.27
2019-01-20T20:14:07.950Z,55.20
2019-01-20T20:16:41.346Z,53.30
2019-01-20T20:19:14.822Z,53.13
2019-01-20T20:21:48.156Z,49.00
2019-01-20T20:24:25.621Z,44.60
2019-01-20T20:26:56.736Z,46.20
2019-01-20T20:29:30.110Z,44.53
2019-01-20T20:32:03.582Z,42.77
2019-01-20T20:34:37.488Z,40.20
2019-01-20T20:37:10.965Z,41.57
2019-01-20T20:39:44.409Z,41.43
2019-01-20T20:42:17.810Z,38.60
2019-01-20T20:44:51.302Z,43.10
2019-01-20T20:47:24.653Z,41.47
2019-01-20T20:49:58.027Z,38.27
2019-01-20T20:52:31.359Z,39.47
2019-01-20T20:55:06.838Z,39.00
2019-01-20T20:57:40.324Z,38.73
2019-01-20T21:00:16.719Z,40.07
2019-01-20T21:02:50.123Z,40.83
2019-01-20T21:05:23.623Z,38.53
2019-01-20T21:07:56.965Z,35.57
2019-01-20T21:10:30.399Z,35.30
2019-01-20T21:13:05.399Z,36.13
2019-01-20T21:15:38.847Z,37.07
2019-01-20T21:18:12.267Z,42.60
2019-01-20T21:20:45.706Z,42.00
2019-01-20T21:23:19.107Z,41.93
2019-01-20T21:25:52.476Z,37.97
2019-01-20T21:28:25.805Z,37.77
2019-01-20T21:30:59.236Z,39.73
2019-01-20T21:33:32.570Z,37.63
2019-01-20T21:36:06.081Z,36.03
2019-01-20T21:38:39.453Z,36.43
2019-01-20T21:41:13.274Z,36.00
2019-01-20T21:43:46.671Z,38.33
2019-01-20T21:46:20.032Z,39.50
2019-01-20T21:48:53.385Z,40.07
2019-01-20T21:51:26.823Z,35.73
2019-01-20T21:54:00.227Z,37.23
2019-01-20T21:56:33.591Z,38.27
2019-01-20T21:59:06.987Z,36.83
2019-01-20T22:01:40.427Z,36.90
2019-01-20T22:04:13.830Z,38.60
2019-01-20T22:06:47.306Z,41.40
2019-01-20T22:09:20.633Z,36.77
2019-01-20T22:11:54.028Z,36.77
2019-01-20T22:14:27.435Z,38.33
2019-01-20T22:17:00.882Z,40.50
2019-01-20T22:19:34.289Z,36.03
2019-01-20T22:22:07.806Z,45.20
2019-01-20T22:24:43.303Z,42.83
2019-01-20T22:27:18.668Z,49.40
2019-01-20T22:29:51.998Z,38.90
2019-01-20T22:32:25.463Z,39.70
2019-01-20T22:34:58.786Z,46.07
2019-01-20T22:37:32.618Z,41.67
2019-01-20T22:40:08.750Z,48.53
2019-01-20T22:42:42.127Z,41.07
2019-01-20T22:45:20.776Z,38.60
2019-01-20T22:47:54.237Z,39.87
2019-01-20T22:50:27.672Z,38.70
2019-01-20T22:53:01.240Z,39.17
2019-01-20T22:55:34.572Z,37.50
2019-01-20T22:58:08.081Z,43.93
2019-01-20T23:00:48.598Z,38.80
2019-01-20T23:03:22.022Z,37.87
2019-01-20T23:05:55.424Z,38.53
2019-01-20T23:08:28.854Z,41.17
2019-01-20T23:11:02.196Z,41.37
2019-01-20T23:13:35.706Z,39.67
2019-01-20T23:16:09.174Z,37.77
2019-01-20T23:18:42.681Z,39.63
2019-01-20T23:21:16.012Z,38.70
2019-01-20T23:23:49.530Z,40.07
2019-01-20T23:26:22.868Z,39.37
2019-01-20T23:28:56.746Z,41.80
2019-01-20T23:31:30.147Z,41.87
2019-01-20T23:34:03.839Z,40.87
2019-01-20T23:36:37.243Z,41.63
2019-01-20T23:39:10.732Z,41.50
2019-01-20T23:41:44.145Z,41.00
2019-01-20T23:44:17.752Z,36.87
2019-01-20T23:46:51.166Z,41.87
2019-01-20T23:49:24.587Z,38.83
2019-01-20T23:51:58.044Z,37.40
2019-01-20T23:54:31.591Z,39.57
2019-01-20T23:57:05.053Z,39.70
2019-01-20T23:59:38.535Z,38.07
